Byron, Oklahoma
Current Conditions -  °F | °C
As of 8:50 PM on Wednesday 26 Nov 2014 (Local Time) from KAVK Reporting Station
Clear Clear  
Wind Chill: 29°   Ceiling: Unl
Heat Index: 36°   Visibility: 10mi
Dew Point: 19°   Wind: 9mph
Humidity: 52%   Direction: 350°N
Pressure: 30.41"   Gusts: NA
Location:  36.916°N, 98.4369°W
Report Text: KAVK 270250Z AUTO 35008KT 10SM CLR 02/M07 A3041 RMK AO2
Loading
Personal Weather Stations






























Interactive Weather Map New forecast layout! Learn more

10-Day Weather Forecast

Advertisements
Track Severe Weather on mobile